Time;durP1;ratioP1;P1;durP2;ratioP2;P2;SDS_P1;SDS_P2;PMS_P1;PMS_P2;Temp;Humidity;BMP_temperature;BMP_pressure;BME280_temperature;BME280_humidity;BME280_pressure;Samples;Min_cycle;Max_cycle;Signal;HPM_P1;HPM_P2
2022/08/30 00:01:05;;;;;;;8.17;3.50;;;17.40;99.90;;;;;;5019131;28;20463;-83
2022/08/30 00:03:44;;;;;;;5.37;3.27;;;17.40;99.90;;;;;;5015499;28;20177;-84
2022/08/30 00:06:11;;;;;;;5.10;3.10;;;17.60;99.90;;;;;;5019728;28;20447;-81
2022/08/30 00:08:38;;;;;;;5.00;2.97;;;;;;;;;;5023599;28;21419;-86
2022/08/30 00:11:05;;;;;;;7.50;3.03;;;17.30;99.90;;;;;;4994858;28;20439;-87
2022/08/30 00:13:31;;;;;;;5.83;3.13;;;17.30;99.90;;;;;;5008154;28;20433;-87
2022/08/30 00:15:57;;;;;;;9.77;3.40;;;17.20;99.90;;;;;;5006359;28;20427;-84
2022/08/30 00:18:23;;;;;;;7.17;3.27;;;17.10;99.90;;;;;;5004386;28;20197;-85
2022/08/30 00:20:50;;;;;;;4.43;3.00;;;17.10;99.90;;;;;;5021226;28;20571;-82
2022/08/30 00:23:17;;;;;;;5.17;4.03;;;17.10;99.90;;;;;;5024296;28;20188;-84
2022/08/30 00:25:43;;;;;;;7.93;3.43;;;17.10;99.90;;;;;;5014580;28;20907;-85
2022/08/30 00:28:09;;;;;;;4.53;3.00;;;17.00;99.90;;;;;;5019973;28;20444;-82
2022/08/30 00:30:35;;;;;;;5.20;3.17;;;18.20;99.90;;;;;;5019462;28;20514;-82
2022/08/30 00:33:01;;;;;;;8.03;2.57;;;16.90;99.90;;;;;;5018446;28;20827;-84
2022/08/30 00:35:27;;;;;;;3.80;2.67;;;16.80;99.90;;;;;;4998812;28;20959;-83
2022/08/30 00:37:52;;;;;;;8.67;2.67;;;16.80;99.90;;;;;;5024354;28;20213;-82
2022/08/30 00:40:19;;;;;;;5.53;3.00;;;16.80;99.90;;;;;;5029005;28;20468;-83
2022/08/30 00:42:46;;;;;;;6.60;3.23;;;16.80;99.90;;;;;;5021236;28;20213;-84
2022/08/30 00:45:28;;;;;;;9.20;3.37;;;16.70;99.90;;;;;;5019871;28;21141;-84
2022/08/30 00:47:54;;;;;;;6.70;3.50;;;16.60;99.90;;;;;;4994287;28;20576;-83
2022/08/30 00:50:24;;;;;;;10.77;3.83;;;16.60;99.90;;;;;;5003457;28;20869;-84
2022/08/30 00:52:54;;;;;;;5.07;3.07;;;16.50;99.90;;;;;;5001790;28;20436;-87
2022/08/30 00:55:20;;;;;;;5.17;3.70;;;16.50;99.90;;;;;;5022567;28;20490;-83
2022/08/30 00:57:49;;;;;;;7.47;2.97;;;16.40;99.90;;;;;;5012563;28;20452;-81
2022/08/30 01:00:15;;;;;;;6.70;3.60;;;16.40;99.90;;;;;;5041713;28;20472;-83
2022/08/30 01:02:41;;;;;;;7.20;3.67;;;16.40;99.90;;;;;;5030436;28;20455;-84
2022/08/30 01:05:12;;;;;;;5.93;3.43;;;16.40;99.90;;;;;;4998137;28;20436;-83
2022/08/30 01:07:38;;;;;;;6.83;3.13;;;16.40;99.90;;;;;;4995959;28;21215;-84
2022/08/30 01:10:06;;;;;;;16.10;3.70;;;16.30;99.90;;;;;;5026970;28;20427;-81
2022/08/30 01:12:32;;;;;;;4.67;3.10;;;16.20;99.90;;;;;;5018966;28;20547;-83
2022/08/30 01:14:58;;;;;;;6.03;3.43;;;16.10;99.90;;;;;;5023361;28;20436;-84
2022/08/30 01:17:25;;;;;;;7.43;3.87;;;16.10;99.90;;;;;;5007743;28;20452;-82
2022/08/30 01:20:05;;;;;;;7.10;2.60;;;16.10;99.90;;;;;;5007795;28;20603;-85
2022/08/30 01:22:47;;;;;;;5.53;3.20;;;16.10;99.90;;;;;;4990563;28;20440;-86
2022/08/30 01:25:15;;;;;;;4.50;3.20;;;16.00;99.90;;;;;;5003893;28;20462;-84
2022/08/30 01:27:46;;;;;;;9.37;3.53;;;16.00;99.90;;;;;;5021166;28;20517;-85
2022/08/30 01:30:12;;;;;;;10.33;3.17;;;16.00;99.90;;;;;;4999395;28;20452;-86
2022/08/30 01:32:41;;;;;;;5.97;3.00;;;15.90;99.90;;;;;;4999878;28;20444;-84
2022/08/30 01:35:08;;;;;;;6.83;3.30;;;15.90;99.90;;;;;;5018163;28;20441;-82
2022/08/30 01:37:35;;;;;;;4.60;2.83;;;15.90;99.90;;;;;;5014421;28;20456;-82
2022/08/30 01:40:01;;;;;;;5.80;3.17;;;15.90;99.90;;;;;;4998440;28;20471;-83
2022/08/30 01:42:27;;;;;;;4.97;3.13;;;15.90;99.90;;;;;;5001637;28;20803;-83
2022/08/30 01:44:53;;;;;;;5.73;2.80;;;16.00;99.90;;;;;;5017247;28;20478;-84
2022/08/30 01:47:20;;;;;;;5.87;2.87;;;;;;;;;;5019540;28;20223;-82
2022/08/30 01:49:46;;;;;;;6.97;3.50;;;15.90;99.90;;;;;;5018443;28;20204;-82
2022/08/30 01:52:13;;;;;;;6.00;3.30;;;16.00;99.90;;;;;;5016042;28;20428;-84
2022/08/30 01:54:40;;;;;;;7.30;3.40;;;15.90;99.90;;;;;;5021705;28;20580;-83
2022/08/30 01:57:10;;;;;;;8.43;3.20;;;15.90;99.90;;;;;;5028422;28;20472;-85
2022/08/30 01:59:37;;;;;;;7.37;3.90;;;15.90;99.90;;;;;;5008461;28;20470;-86
2022/08/30 02:02:03;;;;;;;8.30;3.47;;;15.90;99.90;;;;;;5021549;28;20452;-85
2022/08/30 02:04:29;;;;;;;6.43;3.70;;;15.90;99.90;;;;;;5024734;28;20452;-83
2022/08/30 02:06:55;;;;;;;3.97;3.10;;;15.80;99.90;;;;;;5015003;28;20468;-81
2022/08/30 02:09:20;;;;;;;6.87;3.23;;;15.70;99.90;;;;;;5033794;28;20597;-87
2022/08/30 02:11:47;;;;;;;4.60;3.27;;;15.80;99.90;;;;;;5040650;28;20186;-84
2022/08/30 02:14:13;;;;;;;6.70;3.50;;;15.70;99.90;;;;;;5040662;28;20628;-85
2022/08/30 02:16:39;;;;;;;6.40;3.57;;;15.70;99.90;;;;;;5012550;28;20518;-86
2022/08/30 02:19:06;;;;;;;5.80;3.13;;;15.80;99.90;;;;;;5012219;28;21069;-87
2022/08/30 02:21:32;;;;;;;8.57;3.60;;;15.70;99.90;;;;;;5025317;28;20437;-84
2022/08/30 02:23:57;;;;;;;9.70;4.17;;;15.70;99.90;;;;;;5008399;28;20441;-86
2022/08/30 02:26:23;;;;;;;6.90;4.03;;;15.70;99.90;;;;;;5021707;28;20693;-85
2022/08/30 02:28:50;;;;;;;5.83;3.60;;;15.70;99.90;;;;;;5037586;28;20221;-81
2022/08/30 02:31:17;;;;;;;3.70;3.00;;;15.70;99.90;;;;;;5042321;28;20436;-87
2022/08/30 02:33:43;;;;;;;6.67;4.23;;;15.70;99.90;;;;;;5034054;28;20444;-85
2022/08/30 02:36:09;;;;;;;7.47;3.70;;;15.70;99.90;;;;;;5026157;28;20456;-83
2022/08/30 02:38:35;;;;;;;8.60;3.33;;;15.70;99.90;;;;;;5022575;28;20261;-83
2022/08/30 02:41:00;;;;;;;4.43;3.43;;;15.70;99.90;;;;;;5037717;28;20197;-86
2022/08/30 02:43:27;;;;;;;6.50;3.07;;;;;;;;;;5047122;28;20419;-81
2022/08/30 02:45:53;;;;;;;4.60;3.40;;;;;;;;;;5053936;28;20190;-80
2022/08/30 02:48:19;;;;;;;5.47;3.10;;;15.50;99.90;;;;;;5049406;28;20971;-85
2022/08/30 02:50:47;;;;;;;9.70;3.20;;;17.00;99.90;;;;;;5023185;28;20459;-86
2022/08/30 02:53:13;;;;;;;6.10;3.40;;;15.50;99.90;;;;;;5026413;28;20448;-85
2022/08/30 02:55:38;;;;;;;5.10;3.20;;;15.50;99.90;;;;;;5035977;28;20439;-83
2022/08/30 02:58:05;;;;;;;4.87;3.50;;;15.70;99.90;;;;;;5024670;28;20466;-82
2022/08/30 03:00:31;;;;;;;6.10;3.13;;;15.50;99.90;;;;;;5018453;28;20274;-84
2022/08/30 03:02:57;;;;;;;9.90;3.60;;;15.40;99.90;;;;;;5032825;28;20463;-85
2022/08/30 03:05:23;;;;;;;11.27;4.43;;;15.50;99.90;;;;;;5010073;28;20441;-84
2022/08/30 03:07:49;;;;;;;6.67;3.30;;;15.50;99.90;;;;;;5005442;28;21461;-86
2022/08/30 03:10:15;;;;;;;8.70;3.40;;;15.50;99.90;;;;;;5012326;28;20827;-85
2022/08/30 03:12:42;;;;;;;9.63;3.30;;;15.60;99.90;;;;;;5020954;28;20458;-86
2022/08/30 03:15:11;;;;;;;7.53;3.28;;;15.60;99.90;;;;;;5035236;28;20440;-87
2022/08/30 03:17:38;;;;;;;4.73;3.20;;;15.60;99.90;;;;;;5003234;28;20237;-85
2022/08/30 03:20:06;;;;;;;11.33;3.77;;;15.70;99.90;;;;;;5016989;28;20467;-84
2022/08/30 03:22:32;;;;;;;11.77;4.00;;;15.70;99.90;;;;;;5015292;28;20504;-84
2022/08/30 03:25:00;;;;;;;4.20;2.90;;;17.70;99.90;;;;;;5007813;28;21138;-84
2022/08/30 03:27:26;;;;;;;9.37;4.30;;;15.80;99.90;;;;;;5041173;28;20204;-86
2022/08/30 03:29:52;;;;;;;6.83;3.70;;;15.80;99.90;;;;;;5036498;28;20447;-83
2022/08/30 03:32:18;;;;;;;7.77;3.70;;;15.80;99.90;;;;;;5005028;28;20598;-84
2022/08/30 03:34:44;;;;;;;4.00;2.77;;;15.90;99.90;;;;;;5000399;28;20288;-84
2022/08/30 03:37:09;;;;;;;6.30;3.20;;;15.80;99.90;;;;;;5014441;28;20460;-82
2022/08/30 03:39:35;;;;;;;6.17;4.30;;;15.80;99.90;;;;;;5001432;28;20788;-84
2022/08/30 03:42:01;;;;;;;11.30;3.87;;;15.70;99.90;;;;;;5031213;28;20188;-82
2022/08/30 03:44:26;;;;;;;8.20;3.07;;;15.70;99.90;;;;;;5043406;28;20736;-83
2022/08/30 03:46:52;;;;;;;5.87;3.27;;;15.60;99.90;;;;;;5027031;28;20193;-82
2022/08/30 03:49:18;;;;;;;16.27;3.60;;;15.60;99.90;;;;;;5010980;28;20193;-86
2022/08/30 03:51:44;;;;;;;5.10;3.30;;;15.60;99.90;;;;;;5007154;28;20186;-85
2022/08/30 03:54:10;;;;;;;7.03;3.53;;;15.50;99.90;;;;;;5000910;28;20471;-85
2022/08/30 03:56:36;;;;;;;9.77;3.70;;;15.50;99.90;;;;;;5031175;28;20505;-84
2022/08/30 03:59:01;;;;;;;5.20;3.43;;;15.50;99.90;;;;;;5029123;28;20272;-81
2022/08/30 04:01:27;;;;;;;5.37;2.93;;;15.50;99.90;;;;;;5034177;28;20411;-83
2022/08/30 04:03:52;;;;;;;14.27;3.67;;;15.40;99.90;;;;;;5031750;28;20459;-85
2022/08/30 04:06:18;;;;;;;10.53;3.80;;;15.40;99.90;;;;;;4999831;28;20212;-87
2022/08/30 04:08:44;;;;;;;3.70;3.30;;;15.40;99.90;;;;;;5002904;28;20185;-84
2022/08/30 04:11:11;;;;;;;5.27;3.20;;;15.30;99.90;;;;;;5018613;28;20557;-87
2022/08/30 04:13:37;;;;;;;11.33;3.40;;;15.30;99.90;;;;;;5039167;28;20484;-84
2022/08/30 04:16:02;;;;;;;5.10;3.77;;;15.30;99.90;;;;;;5017296;28;20527;-85
2022/08/30 04:18:28;;;;;;;6.33;3.83;;;15.30;99.90;;;;;;5015435;28;20187;-84
2022/08/30 04:20:55;;;;;;;5.40;3.63;;;15.20;99.90;;;;;;5026448;28;20231;-85
2022/08/30 04:23:21;;;;;;;6.20;3.73;;;;;;;;;;5021963;28;20430;-84
2022/08/30 04:25:47;;;;;;;6.50;3.90;;;;;;;;;;5022691;28;20921;-86
2022/08/30 04:28:13;;;;;;;6.70;3.90;;;15.20;99.90;;;;;;5016807;28;20595;-84
2022/08/30 04:30:43;;;;;;;7.10;3.63;;;15.40;99.90;;;;;;5025750;28;20463;-87
2022/08/30 04:33:10;;;;;;;5.00;3.37;;;15.40;99.90;;;;;;5014622;28;20495;-86
2022/08/30 04:35:39;;;;;;;9.10;4.00;;;15.40;99.90;;;;;;5016845;28;20540;-84
2022/08/30 04:38:04;;;;;;;7.85;3.90;;;15.40;99.90;;;;;;5029941;28;20430;-86
2022/08/30 04:40:30;;;;;;;4.97;3.40;;;15.40;99.90;;;;;;5001919;28;20208;-87
2022/08/30 04:42:55;;;;;;;5.13;3.47;;;15.40;99.90;;;;;;5028974;28;20177;-86
2022/08/30 04:45:21;;;;;;;7.73;3.53;;;15.40;99.90;;;;;;5035462;28;20678;-87
2022/08/30 04:47:47;;;;;;;8.43;3.80;;;15.40;99.90;;;;;;5011417;28;20296;-85
2022/08/30 04:50:16;;;;;;;7.20;3.90;;;15.40;99.90;;;;;;5004638;28;20445;-88
2022/08/30 04:52:42;;;;;;;5.53;4.20;;;15.40;99.90;;;;;;5001546;28;20186;-87
2022/08/30 04:55:09;;;;;;;10.10;4.37;;;15.40;99.90;;;;;;5014263;28;20451;-85
2022/08/30 04:57:35;;;;;;;8.30;3.73;;;15.50;99.90;;;;;;5017065;28;20298;-87
2022/08/30 05:00:02;;;;;;;10.67;4.57;;;15.50;99.90;;;;;;5015029;28;20456;-87
2022/08/30 05:02:29;;;;;;;6.80;3.50;;;15.50;99.90;;;;;;5029411;28;20431;-84
2022/08/30 05:07:38;;;;;;;6.03;3.53;;;15.80;99.90;;;;;;5015703;28;20511;-86
2022/08/30 05:10:04;;;;;;;10.87;4.40;;;16.40;99.90;;;;;;5007061;28;20520;-86
2022/08/30 05:12:30;;;;;;;4.63;3.40;;;17.00;99.90;;;;;;5044472;28;20188;-82
2022/08/30 05:14:57;;;;;;;3.90;3.03;;;17.80;99.90;;;;;;5021997;28;20440;-86
2022/08/30 05:17:23;;;;;;;10.10;4.27;;;18.60;99.90;;;;;;5018005;28;20266;-86
2022/08/30 05:19:48;;;;;;;11.20;4.03;;;18.90;99.90;;;;;;5005785;28;20480;-87
2022/08/30 05:22:14;;;;;;;9.03;4.13;;;19.30;99.90;;;;;;5021906;28;20445;-88
2022/08/30 05:24:39;;;;;;;6.93;3.93;;;20.00;99.90;;;;;;4999432;28;20189;-83
2022/08/30 05:27:05;;;;;;;6.00;4.00;;;20.70;99.90;;;;;;5003889;28;20196;-85
2022/08/30 05:29:31;;;;;;;4.40;3.83;;;21.60;99.90;;;;;;5051236;28;20195;-83
2022/08/30 05:31:56;;;;;;;6.07;3.30;;;22.70;99.90;;;;;;5024531;28;20169;-84
2022/08/30 05:34:22;;;;;;;32.10;4.17;;;23.60;99.90;;;;;;5038939;28;20975;-85
2022/08/30 05:36:48;;;;;;;8.70;4.27;;;24.30;99.90;;;;;;5025408;28;20212;-85
2022/08/30 05:39:13;;;;;;;8.63;3.00;;;25.60;99.90;;;;;;5011222;28;20208;-85
2022/08/30 05:41:39;;;;;;;7.20;3.43;;;26.30;99.90;;;;;;5016734;28;20597;-85
2022/08/30 05:44:07;;;;;;;10.60;4.20;;;27.30;99.90;;;;;;5022727;28;20188;-87
2022/08/30 05:46:34;;;;;;;8.10;4.23;;;28.40;96.60;;;;;;4999060;28;20208;-86
2022/08/30 05:49:01;;;;;;;10.90;3.37;;;29.50;93.90;;;;;;5030063;28;20448;-88
2022/08/30 05:51:28;;;;;;;8.70;3.97;;;30.50;90.60;;;;;;5023216;28;21003;-86
2022/08/30 05:53:55;;;;;;;14.90;3.40;;;31.10;81.20;;;;;;5020570;28;20437;-85
2022/08/30 05:56:24;;;;;;;5.77;3.60;;;31.70;76.90;;;;;;5011821;28;20457;-85
2022/08/30 05:58:50;;;;;;;9.57;4.00;;;;;;;;;;5032827;28;20844;-86
2022/08/30 06:01:23;;;;;;;10.80;4.17;;;31.80;69.50;;;;;;5002310;28;20854;-88
2022/08/30 06:03:50;;;;;;;6.30;3.70;;;32.40;69.10;;;;;;5028046;28;20496;-86
2022/08/30 06:06:15;;;;;;;8.20;3.90;;;33.00;65.10;;;;;;5025129;28;20452;-88
2022/08/30 06:08:44;;;;;;;5.70;3.20;;;32.80;62.10;;;;;;5021176;28;20472;-87
2022/08/30 06:11:10;;;;;;;7.87;4.70;;;32.30;62.70;;;;;;5015904;28;20179;-86
2022/08/30 06:13:35;;;;;;;6.70;3.97;;;32.60;61.00;;;;;;5026268;28;20459;-85
2022/08/30 06:16:01;;;;;;;13.53;4.90;;;32.90;58.10;;;;;;5015073;28;20450;-83
2022/08/30 06:18:27;;;;;;;6.70;3.20;;;32.70;58.20;;;;;;5011880;28;20186;-86
2022/08/30 06:20:52;;;;;;;11.10;3.97;;;31.20;59.20;;;;;;5022411;28;20264;-85
2022/08/30 06:23:18;;;;;;;8.67;4.00;;;30.40;59.90;;;;;;4994112;28;20176;-87
2022/08/30 06:25:44;;;;;;;6.47;3.70;;;;;;;;;;5011451;28;20256;-87
2022/08/30 06:28:10;;;;;;;9.93;4.00;;;28.80;62.00;;;;;;5021672;28;20275;-86
2022/08/30 06:30:38;;;;;;;8.60;4.93;;;28.10;65.20;;;;;;5022007;28;21012;-84
2022/08/30 06:33:03;;;;;;;9.67;4.30;;;27.70;67.60;;;;;;4998027;28;20275;-84
2022/08/30 06:35:31;;;;;;;7.80;4.10;;;28.30;70.00;;;;;;5022648;28;20530;-86
2022/08/30 06:37:57;;;;;;;7.50;4.17;;;;;;;;;;5019752;28;20260;-86
2022/08/30 06:40:23;;;;;;;6.00;3.50;;;29.30;68.10;;;;;;5010659;28;20476;-86
2022/08/30 06:42:50;;;;;;;11.50;4.20;;;;;;;;;;5018135;28;20493;-87
2022/08/30 06:45:16;;;;;;;8.87;4.43;;;30.90;62.70;;;;;;5043237;28;20190;-87
2022/08/30 06:47:42;;;;;;;7.57;4.87;;;30.50;62.70;;;;;;5020924;28;20533;-89
2022/08/30 06:50:10;;;;;;;7.37;4.80;;;29.90;62.90;;;;;;5023840;28;20433;-83
2022/08/30 06:52:36;;;;;;;9.13;4.60;;;30.20;66.70;;;;;;4996750;28;20441;-87
2022/08/30 06:55:02;;;;;;;8.00;4.70;;;31.50;63.40;;;;;;5004946;28;20438;-88
2022/08/30 06:57:28;;;;;;;7.70;4.17;;;33.10;59.00;;;;;;5000722;28;20702;-84
2022/08/30 06:59:57;;;;;;;7.80;4.50;;;34.20;58.20;;;;;;5052326;28;20493;-84
2022/08/30 07:02:23;;;;;;;6.80;5.40;;;34.60;56.90;;;;;;5030805;28;20194;-85
2022/08/30 07:04:49;;;;;;;7.73;4.30;;;34.50;54.80;;;;;;5019069;28;20453;-85
2022/08/30 07:07:15;;;;;;;8.20;4.73;;;33.10;54.90;;;;;;5020724;28;20462;-87
2022/08/30 07:09:42;;;;;;;5.87;4.80;;;31.20;58.10;;;;;;4995898;28;20288;-82
2022/08/30 07:12:08;;;;;;;8.70;6.40;;;30.80;60.90;;;;;;5014176;28;20741;-85
2022/08/30 07:14:35;;;;;;;10.30;5.07;;;31.30;60.40;;;;;;5000654;28;20446;-86
2022/08/30 07:17:00;;;;;;;7.70;5.50;;;32.20;59.30;;;;;;5002767;28;20525;-83
2022/08/30 07:19:26;;;;;;;6.10;4.60;;;;;;;;;;5001169;28;20693;-85
2022/08/30 07:21:52;;;;;;;12.93;5.30;;;32.70;57.50;;;;;;5001846;28;20188;-85
2022/08/30 07:24:18;;;;;;;12.90;6.87;;;33.60;58.30;;;;;;5008269;28;20432;-86
2022/08/30 07:26:48;;;;;;;8.80;5.33;;;34.40;55.60;;;;;;4987788;28;20300;-83
2022/08/30 07:29:14;;;;;;;10.37;5.40;;;;;;;;;;5004212;28;20465;-86
2022/08/30 07:31:40;;;;;;;11.80;6.73;;;36.30;53.80;;;;;;5005664;28;20438;-85
2022/08/30 07:34:06;;;;;;;14.03;7.70;;;37.40;52.10;;;;;;5011439;28;20452;-85
2022/08/30 07:36:33;;;;;;;9.07;7.90;;;39.20;46.80;;;;;;5004785;28;20999;-87
2022/08/30 07:38:59;;;;;;;9.47;8.40;;;;;;;;;;5008405;28;20436;-85
2022/08/30 07:41:28;;;;;;;11.00;9.90;;;39.20;45.40;;;;;;5013601;28;20515;-86
2022/08/30 07:43:55;;;;;;;11.50;10.40;;;39.30;45.00;;;;;;5025714;28;20424;-88
2022/08/30 07:46:21;;;;;;;11.33;10.40;;;39.30;45.50;;;;;;5014748;28;20542;-89
2022/08/30 07:48:47;;;;;;;11.33;10.23;;;38.60;44.50;;;;;;4994444;28;20877;-84
2022/08/30 07:51:16;;;;;;;12.30;9.33;;;38.40;45.60;;;;;;5021853;28;20440;-85
2022/08/30 07:53:41;;;;;;;10.87;9.87;;;38.40;46.10;;;;;;5016861;28;20191;-86
2022/08/30 07:56:07;;;;;;;10.97;10.13;;;;;;;;;;4992514;28;20428;-82
2022/08/30 07:58:33;;;;;;;12.97;11.27;;;;;;;;;;5003644;28;20936;-87
2022/08/30 08:01:00;;;;;;;11.37;10.57;;;38.70;44.50;;;;;;5015007;28;20557;-83
2022/08/30 08:03:27;;;;;;;12.33;10.70;;;38.40;44.40;;;;;;5014265;28;20446;-84
2022/08/30 08:05:53;;;;;;;11.53;10.50;;;37.40;47.10;;;;;;5001061;28;21313;-84
2022/08/30 08:08:19;;;;;;;12.80;11.70;;;;;;;;;;4992549;28;20993;-86
2022/08/30 08:10:45;;;;;;;14.83;11.27;;;;;;;;;;5011094;28;20464;-86
2022/08/30 08:13:11;;;;;;;12.13;11.13;;;;;;;;;;5005456;28;20498;-86
2022/08/30 08:15:38;;;;;;;13.90;12.70;;;;;;;;;;5028094;28;20538;-87
2022/08/30 08:18:04;;;;;;;14.10;13.20;;;;;;;;;;5010438;28;21922;-88
2022/08/30 08:20:30;;;;;;;14.60;13.30;;;;;;;;;;5009082;28;20463;-84
2022/08/30 08:22:56;;;;;;;14.77;13.87;;;;;;;;;;4990742;28;20469;-88
2022/08/30 08:25:22;;;;;;;14.27;13.37;;;;;;;;;;4989355;28;20567;-85
2022/08/30 08:27:49;;;;;;;16.50;14.10;;;41.40;40.00;;;;;;5011695;28;20578;-85
2022/08/30 08:30:15;;;;;;;16.30;15.13;;;;;;;;;;5020032;28;20535;-82
2022/08/30 08:32:41;;;;;;;17.33;16.03;;;40.20;38.30;;;;;;5030830;28;20427;-85
2022/08/30 08:35:07;;;;;;;15.00;13.90;;;39.10;40.40;;;;;;5008557;28;21471;-85
2022/08/30 08:37:33;;;;;;;14.77;13.70;;;;;;;;;;4987532;28;20232;-88
2022/08/30 08:39:58;;;;;;;14.87;13.37;;;37.70;42.30;;;;;;4996806;28;20219;-86
2022/08/30 08:42:35;;;;;;;15.77;13.50;;;37.40;43.00;;;;;;5004362;28;20444;-87
2022/08/30 08:45:10;;;;;;;13.17;12.20;;;37.00;44.00;;;;;;4985616;28;20183;-87
2022/08/30 08:47:48;;;;;;;14.10;12.70;;;37.00;44.20;;;;;;4983214;28;20498;-85
2022/08/30 08:50:18;;;;;;;12.57;11.60;;;37.00;44.80;;;;;;4986070;28;20448;-85
2022/08/30 09:08:35;;;;;;;11.50;10.80;;;36.10;45.80;;;;;;5015311;28;20491;-89
2022/08/30 09:11:05;;;;;;;12.00;11.20;;;35.80;46.50;;;;;;5028089;28;20449;-86
2022/08/30 09:13:31;;;;;;;14.17;13.07;;;35.90;46.00;;;;;;5001121;28;20443;-84
2022/08/30 09:15:58;;;;;;;13.30;12.03;;;35.80;46.20;;;;;;5026770;28;20817;-87
2022/08/30 09:18:43;;;;;;;11.43;10.50;;;35.70;46.70;;;;;;5022959;28;20477;-85
2022/08/30 09:21:10;;;;;;;11.90;10.83;;;35.60;46.40;;;;;;5024084;28;20461;-88
2022/08/30 09:23:36;;;;;;;12.30;11.30;;;;;;;;;;5007981;28;20441;-86
2022/08/30 09:26:08;;;;;;;16.17;10.80;;;34.80;47.90;;;;;;5017636;28;20478;-88
2022/08/30 09:28:47;;;;;;;11.37;10.53;;;34.70;48.20;;;;;;5031579;28;20437;-87
2022/08/30 09:31:24;;;;;;;11.10;10.10;;;34.40;49.20;;;;;;5027156;28;20985;-86
2022/08/30 09:34:06;;;;;;;11.27;10.30;;;34.60;48.70;;;;;;5011475;28;20584;-86
2022/08/30 09:36:44;;;;;;;12.67;10.40;;;34.90;49.00;;;;;;5009313;28;20549;-87
2022/08/30 09:39:17;;;;;;;12.30;11.10;;;36.80;50.70;;;;;;5016649;28;20459;-87
2022/08/30 09:41:48;;;;;;;10.53;9.53;;;35.20;48.00;;;;;;5009909;28;20968;-89
2022/08/30 09:44:18;;;;;;;11.23;9.93;;;34.70;48.80;;;;;;5028744;28;20438;-88
2022/08/30 09:46:50;;;;;;;9.70;9.03;;;34.60;49.30;;;;;;5014728;28;20894;-87
2022/08/30 09:49:38;;;;;;;11.20;10.20;;;34.30;49.30;;;;;;5017402;28;20438;-87
2022/08/30 09:52:44;;;;;;;10.50;9.37;;;33.50;50.30;;;;;;5023580;28;20474;-86
2022/08/30 09:55:45;;;;;;;10.80;9.80;;;33.60;50.90;;;;;;5017844;28;20434;-87
2022/08/30 09:58:47;;;;;;;9.70;8.80;;;33.90;50.50;;;;;;5041664;28;20470;-89
2022/08/30 10:01:23;;;;;;;12.67;10.33;;;34.30;50.90;;;;;;5057272;28;20471;-88
2022/08/30 10:03:49;;;;;;;11.20;10.10;;;;;;;;;;5045684;28;20440;-87
2022/08/30 10:06:24;;;;;;;12.70;11.50;;;35.40;47.90;;;;;;5030388;28;20454;-89
2022/08/30 10:08:50;;;;;;;12.73;11.73;;;;;;;;;;5037015;28;20509;-88
2022/08/30 10:11:38;;;;;;;13.77;11.20;;;34.20;49.30;;;;;;5031326;28;20441;-87
2022/08/30 10:14:19;;;;;;;11.70;10.70;;;34.30;50.00;;;;;;5046022;28;20489;-89
2022/08/30 10:17:13;;;;;;;11.20;10.33;;;34.00;50.40;;;;;;5036492;28;20458;-86
2022/08/30 10:19:50;;;;;;;10.00;9.07;;;34.00;50.70;;;;;;5014225;28;20455;-88
2022/08/30 10:22:29;;;;;;;11.33;10.30;;;33.20;50.50;;;;;;5025881;28;20436;-89
2022/08/30 10:25:05;;;;;;;12.93;9.50;;;33.10;51.10;;;;;;5033442;28;20552;-89
2022/08/30 10:27:44;;;;;;;12.73;9.60;;;32.80;52.30;;;;;;5015364;28;20534;-89
2022/08/30 10:30:13;;;;;;;9.87;8.87;;;32.40;52.60;;;;;;5027175;28;20430;-89
2022/08/30 10:33:11;;;;;;;11.60;8.77;;;32.20;53.80;;;;;;5026570;28;20455;-88
2022/08/30 10:35:43;;;;;;;9.50;8.37;;;31.60;54.50;;;;;;4961600;28;21127;-88
2022/08/30 10:38:36;;;;;;;10.17;7.90;;;31.30;54.90;;;;;;5031699;28;20543;-88
2022/08/30 10:41:31;;;;;;;9.57;8.00;;;30.70;55.90;;;;;;5022824;28;20685;-89
2022/08/30 10:44:04;;;;;;;16.83;7.10;;;30.40;57.60;;;;;;5026214;28;20536;-87
2022/08/30 10:47:05;;;;;;;11.77;7.73;;;30.50;57.40;;;;;;5021188;28;20459;-88
2022/08/30 10:49:41;;;;;;;9.23;8.00;;;30.40;57.00;;;;;;5011182;28;20444;-89
2022/08/30 10:52:22;;;;;;;12.40;7.70;;;30.30;58.00;;;;;;5029462;28;20488;-89
2022/08/30 10:55:00;;;;;;;9.73;6.90;;;30.40;58.30;;;;;;5024671;28;20446;-88
2022/08/30 10:57:25;;;;;;;18.70;7.90;;;30.30;58.20;;;;;;5030890;28;21091;-89
2022/08/30 11:00:06;;;;;;;13.83;7.30;;;30.10;58.20;;;;;;5013936;28;20464;-88
2022/08/30 11:02:54;;;;;;;7.20;6.10;;;30.10;58.30;;;;;;5031855;28;20204;-88
2022/08/30 11:05:30;;;;;;;9.50;7.53;;;30.50;58.80;;;;;;5012438;28;21353;-88
2022/08/30 11:08:27;;;;;;;9.00;6.57;;;30.70;57.60;;;;;;5022818;28;20532;-88
2022/08/30 11:10:55;;;;;;;9.53;7.60;;;30.70;57.90;;;;;;5014744;28;20503;-87
2022/08/30 11:13:30;;;;;;;8.40;7.60;;;30.40;57.40;;;;;;5034257;28;20428;-88
2022/08/30 11:16:03;;;;;;;8.80;7.43;;;30.20;58.20;;;;;;5026280;28;21010;-88
2022/08/30 11:18:39;;;;;;;11.97;7.10;;;30.20;58.60;;;;;;5024161;28;20436;-88
2022/08/30 11:21:38;;;;;;;7.90;6.60;;;30.30;58.90;;;;;;5025479;28;20474;-88
2022/08/30 11:24:09;;;;;;;18.90;7.83;;;30.60;59.10;;;;;;5016006;28;20444;-87
2022/08/30 11:26:53;;;;;;;11.10;8.20;;;30.70;58.40;;;;;;5013784;28;20598;-88
2022/08/30 11:29:33;;;;;;;8.47;6.47;;;30.40;57.60;;;;;;5044740;28;20527;-89
2022/08/30 11:32:10;;;;;;;8.80;7.90;;;30.40;59.30;;;;;;5053783;28;20444;-91
2022/08/30 11:35:03;;;;;;;8.17;7.37;;;30.70;58.00;;;;;;5042143;28;20450;-89
2022/08/30 11:37:38;;;;;;;9.37;8.37;;;30.80;57.00;;;;;;5007492;28;20460;-89
2022/08/30 11:40:21;;;;;;;11.13;6.67;;;30.70;56.90;;;;;;5017143;28;20459;-89
2022/08/30 11:42:49;;;;;;;9.43;8.00;;;31.00;56.70;;;;;;5029098;28;20520;-90
2022/08/30 11:45:23;;;;;;;11.80;7.80;;;30.60;56.80;;;;;;5033063;28;20423;-89
2022/08/30 11:47:56;;;;;;;10.50;7.30;;;31.10;57.00;;;;;;5028649;28;20466;-90
2022/08/30 11:50:26;;;;;;;9.03;7.20;;;31.30;56.60;;;;;;5030902;28;20436;-89
2022/08/30 11:53:18;;;;;;;8.20;7.30;;;31.30;56.40;;;;;;5028500;28;20538;-89
2022/08/30 11:56:03;;;;;;;7.83;7.20;;;31.50;57.00;;;;;;5031097;28;20486;-90
2022/08/30 11:58:40;;;;;;;10.47;7.67;;;31.30;55.00;;;;;;5019157;28;20432;-90
2022/08/30 12:01:31;;;;;;;9.27;7.30;;;30.90;55.90;;;;;;5041823;28;20458;-91
2022/08/30 12:04:20;;;;;;;9.07;7.13;;;30.80;55.80;;;;;;5025896;28;20547;-90
2022/08/30 12:06:53;;;;;;;8.33;7.60;;;30.60;54.60;;;;;;5044587;28;20468;-90
2022/08/30 12:09:25;;;;;;;8.17;7.30;;;30.60;55.10;;;;;;5037445;28;20494;-92
2022/08/30 12:11:59;;;;;;;9.70;7.50;;;30.60;55.10;;;;;;5042186;28;20432;-91
2022/08/30 12:14:50;;;;;;;10.47;7.30;;;30.40;55.70;;;;;;5028643;28;20431;-93
2022/08/30 12:20:47;;;;;;;10.30;7.53;;;30.50;56.10;;;;;;4990279;28;20472;-90
2022/08/30 12:23:30;;;;;;;7.10;6.50;;;30.70;55.90;;;;;;5035355;28;20449;-91
2022/08/30 12:26:30;;;;;;;8.83;7.53;;;26.90;53.60;;;;;;5036546;28;20436;-88
2022/08/30 12:29:10;;;;;;;7.70;7.00;;;30.30;56.40;;;;;;4965452;28;20534;-94
2022/08/30 12:31:45;;;;;;;7.80;7.00;;;30.40;56.60;;;;;;5025925;28;21583;-90
2022/08/30 12:34:28;;;;;;;10.00;8.00;;;30.50;55.80;;;;;;5021855;28;20436;-90
2022/08/30 12:36:58;;;;;;;10.10;6.90;;;30.50;56.10;;;;;;5027225;28;20526;-87
2022/08/30 12:39:33;;;;;;;7.97;7.27;;;30.80;55.90;;;;;;5022379;28;20539;-88
2022/08/30 12:42:21;;;;;;;13.00;7.40;;;31.20;55.20;;;;;;5020085;28;20448;-90
2022/08/30 12:44:49;;;;;;;10.60;7.57;;;31.80;54.60;;;;;;5026613;28;20578;-90
2022/08/30 12:47:21;;;;;;;8.90;8.10;;;32.80;52.80;;;;;;5026364;28;20458;-88
2022/08/30 12:49:49;;;;;;;10.80;7.93;;;33.40;51.80;;;;;;5019915;28;20524;-89
2022/08/30 12:52:32;;;;;;;10.00;8.27;;;33.40;52.30;;;;;;5027551;28;20498;-88
2022/08/30 12:55:27;;;;;;;9.43;8.47;;;33.50;51.60;;;;;;5035552;28;20992;-88
2022/08/30 12:58:10;;;;;;;9.77;8.90;;;32.30;51.60;;;;;;5040947;28;20462;-91
2022/08/30 13:00:38;;;;;;;11.03;7.63;;;32.20;52.00;;;;;;5035296;28;20466;-88
2022/08/30 13:03:27;;;;;;;15.60;8.97;;;32.00;52.50;;;;;;5027612;28;20494;-90
2022/08/30 13:05:56;;;;;;;8.40;7.70;;;32.20;53.00;;;;;;5019873;28;20452;-93
2022/08/30 13:08:44;;;;;;;10.30;8.87;;;32.60;52.60;;;;;;5023501;28;20553;-90
2022/08/30 13:11:26;;;;;;;10.83;8.90;;;33.00;51.40;;;;;;5020865;28;20566;-91
2022/08/30 13:13:57;;;;;;;10.10;9.20;;;32.90;51.80;;;;;;5016690;28;20515;-89
2022/08/30 13:17:03;;;;;;;12.20;8.83;;;33.00;51.90;;;;;;5036266;28;20539;-89
2022/08/30 13:19:35;;;;;;;9.73;8.07;;;32.60;52.00;;;;;;5026636;28;20447;-91
2022/08/30 13:22:40;;;;;;;8.80;7.90;;;32.10;53.30;;;;;;5035821;28;20477;-92
2022/08/30 13:25:10;;;;;;;9.47;8.67;;;31.40;53.10;;;;;;5029748;28;20497;-91
2022/08/30 13:27:37;;;;;;;8.97;8.17;;;31.50;54.20;;;;;;5027988;28;20476;-91
2022/08/30 13:30:15;;;;;;;8.90;8.20;;;31.90;53.90;;;;;;5027312;28;20525;-90